Time;durP1;ratioP1;P1;durP2;ratioP2;P2;SDS_P1;SDS_P2;PMS_P1;PMS_P2;Temp;Humidity;BMP_temperature;BMP_pressure;BME280_temperature;BME280_humidity;BME280_pressure;Samples;Min_cycle;Max_cycle;Signal;HPM_P1;HPM_P2
2021/03/25 00:01:26;;;;;;;0.82;0.30;;;31.30;48.80;;;;;;5043413;28;20966;-68
2021/03/25 00:03:55;;;;;;;0.20;0.20;;;31.30;47.20;;;;;;5053313;28;20419;-68
2021/03/25 00:06:27;;;;;;;0.80;0.30;;;31.70;47.40;;;;;;5054510;28;20033;-68
2021/03/25 00:08:55;;;;;;;0.30;0.20;;;32.00;47.80;;;;;;5052766;28;20043;-68
2021/03/25 00:11:23;;;;;;;0.73;0.30;;;32.20;48.90;;;;;;5056551;28;20028;-69
2021/03/25 00:13:51;;;;;;;1.10;0.77;;;32.60;45.20;;;;;;5062501;28;20025;-70
2021/03/25 00:16:18;;;;;;;1.95;0.30;;;32.20;43.90;;;;;;5063427;28;20065;-68
2021/03/25 00:18:45;;;;;;;0.50;0.38;;;32.40;47.20;;;;;;5055970;28;20096;-69
2021/03/25 00:21:14;;;;;;;0.60;0.30;;;32.30;45.80;;;;;;5051607;28;21178;-68
2021/03/25 00:23:41;;;;;;;0.90;0.20;;;32.40;44.60;;;;;;5052232;28;20052;-68
2021/03/25 00:26:08;;;;;;;0.68;0.30;;;32.70;46.10;;;;;;5053573;28;20040;-68
2021/03/25 00:28:36;;;;;;;0.70;0.20;;;32.40;44.10;;;;;;5049364;28;20149;-70
2021/03/25 00:31:04;;;;;;;0.47;0.20;;;32.70;48.40;;;;;;5060759;28;20043;-68
2021/03/25 00:33:31;;;;;;;1.83;0.20;;;33.10;45.30;;;;;;5064209;28;20032;-68
2021/03/25 00:35:59;;;;;;;1.42;0.30;;;33.00;47.30;;;;;;5063680;28;20155;-69
2021/03/25 00:38:26;;;;;;;1.23;0.30;;;32.80;45.20;;;;;;5052835;28;20033;-69
2021/03/25 00:40:53;;;;;;;0.73;0.32;;;32.50;44.90;;;;;;5052178;28;20424;-69
2021/03/25 00:43:23;;;;;;;2.72;0.20;;;32.50;45.90;;;;;;5048145;28;20040;-69
2021/03/25 00:45:51;;;;;;;0.35;0.30;;;33.10;45.70;;;;;;5052013;28;20031;-68
2021/03/25 00:48:22;;;;;;;0.32;0.20;;;33.30;43.70;;;;;;5050967;28;20017;-70
2021/03/25 00:51:01;;;;;;;0.63;0.30;;;33.40;45.10;;;;;;5050205;28;20029;-69
2021/03/25 00:53:33;;;;;;;0.40;0.20;;;33.60;43.80;;;;;;5053039;28;20078;-67
2021/03/25 00:56:01;;;;;;;1.67;0.40;;;33.90;45.00;;;;;;5049590;28;20137;-70
2021/03/25 00:58:28;;;;;;;0.60;0.20;;;34.10;43.80;;;;;;5049075;28;20021;-69
2021/03/25 01:00:57;;;;;;;1.85;0.30;;;34.40;44.40;;;;;;5049873;28;20029;-67
2021/03/25 01:03:26;;;;;;;0.50;0.20;;;34.20;40.90;;;;;;5049380;28;20064;-70
2021/03/25 01:05:54;;;;;;;1.17;0.40;;;33.80;43.20;;;;;;5053770;28;20490;-69
2021/03/25 01:08:25;;;;;;;1.65;0.52;;;33.10;41.30;;;;;;5033328;28;20046;-67
2021/03/25 01:11:03;;;;;;;3.38;0.30;;;33.10;43.30;;;;;;5054173;28;20017;-69
2021/03/25 01:14:08;;;;;;;0.28;0.20;;;33.30;44.80;;;;;;5051245;28;20485;-71
2021/03/25 01:16:39;;;;;;;1.65;0.30;;;32.80;40.90;;;;;;4974501;28;20406;-69
2021/03/25 01:19:12;;;;;;;2.00;0.38;;;33.10;42.60;;;;;;5041486;28;20078;-68
2021/03/25 01:21:40;;;;;;;1.05;0.40;;;32.40;42.30;;;;;;5050591;28;20063;-68
2021/03/25 01:24:10;;;;;;;3.40;0.80;;;32.10;44.60;;;;;;5048988;28;20036;-72
2021/03/25 01:26:38;;;;;;;0.80;0.40;;;31.70;47.00;;;;;;5050068;28;20034;-71
2021/03/25 01:29:06;;;;;;;0.70;0.28;;;32.50;49.40;;;;;;5046402;28;20047;-70
2021/03/25 01:31:35;;;;;;;0.35;0.20;;;33.30;45.30;;;;;;5053397;28;20040;-68
2021/03/25 01:34:05;;;;;;;0.30;0.20;;;33.60;44.20;;;;;;5051784;28;20081;-68
2021/03/25 01:36:32;;;;;;;2.90;0.30;;;33.90;45.20;;;;;;5052790;28;20143;-69
2021/03/25 01:39:00;;;;;;;0.38;0.20;;;34.20;42.30;;;;;;5050586;28;20024;-68
2021/03/25 01:41:32;;;;;;;0.35;0.30;;;34.30;45.10;;;;;;5052456;28;20098;-69
2021/03/25 01:43:59;;;;;;;1.95;0.40;;;33.80;40.10;;;;;;5049642;28;20034;-70
2021/03/25 01:46:26;;;;;;;1.38;0.32;;;32.80;42.50;;;;;;5047941;28;20507;-68
2021/03/25 01:49:06;;;;;;;0.38;0.32;;;31.50;48.20;;;;;;5051308;28;20074;-69
2021/03/25 01:51:43;;;;;;;0.30;0.20;;;31.80;47.30;;;;;;5050161;28;20032;-67
2021/03/25 01:54:31;;;;;;;0.63;0.22;;;32.20;50.20;;;;;;5046951;28;20032;-68
2021/03/25 01:57:19;;;;;;;2.17;0.30;;;32.70;47.90;;;;;;5057866;28;20478;-69
2021/03/25 01:59:59;;;;;;;0.55;0.20;;;32.30;46.60;;;;;;5058628;28;20031;-68
2021/03/25 02:02:26;;;;;;;0.60;0.20;;;32.40;49.30;;;;;;5051355;28;20403;-69
2021/03/25 02:05:06;;;;;;;0.90;0.22;;;32.30;47.10;;;;;;5048833;28;20016;-69
2021/03/25 02:07:47;;;;;;;1.38;0.30;;;31.70;47.60;;;;;;5048984;28;20103;-68
2021/03/25 02:10:43;;;;;;;2.30;0.20;;;31.40;47.40;;;;;;5032563;28;20020;-70
2021/03/25 02:13:40;;;;;;;0.75;0.20;;;31.00;47.50;;;;;;5025349;28;20048;-68
2021/03/25 02:16:49;;;;;;;0.70;0.20;;;30.90;50.50;;;;;;5045989;28;21911;-68
2021/03/25 02:19:57;;;;;;;1.35;0.20;;;30.80;48.40;;;;;;5000501;28;20487;-68
2021/03/25 02:22:48;;;;;;;0.70;0.20;;;31.10;49.80;;;;;;4965743;28;20054;-71
2021/03/25 02:25:42;;;;;;;1.98;0.40;;;31.00;49.80;;;;;;5052489;28;20032;-69
2021/03/25 02:28:19;;;;;;;0.32;0.20;;;31.70;49.90;;;;;;5052224;28;20086;-70
2021/03/25 02:30:47;;;;;;;2.25;0.20;;;33.00;48.50;;;;;;5051539;28;20175;-70
2021/03/25 02:33:20;;;;;;;2.38;0.20;;;33.50;45.80;;;;;;5052392;28;20426;-69
2021/03/25 02:36:02;;;;;;;0.10;0.10;;;33.40;45.50;;;;;;5052080;28;20024;-70
2021/03/25 02:38:39;;;;;;;0.35;0.20;;;32.70;46.30;;;;;;5053453;28;20032;-69
2021/03/25 02:41:16;;;;;;;1.08;0.20;;;32.90;46.10;;;;;;5046039;28;20032;-69
2021/03/25 02:44:06;;;;;;;0.45;0.10;;;32.10;47.20;;;;;;5052929;28;20043;-70
2021/03/25 02:46:50;;;;;;;0.20;0.10;;;31.80;48.10;;;;;;5033542;28;20534;-68
2021/03/25 02:49:25;;;;;;;2.20;0.28;;;31.70;49.40;;;;;;5050896;28;20594;-70
2021/03/25 02:51:52;;;;;;;0.50;0.20;;;31.30;50.90;;;;;;5047479;28;20048;-69
2021/03/25 02:54:20;;;;;;;2.50;0.30;;;30.90;47.00;;;;;;5049270;28;20467;-70
2021/03/25 02:56:53;;;;;;;0.20;0.10;;;31.50;46.70;;;;;;5048247;28;20052;-70
2021/03/25 02:59:26;;;;;;;0.65;0.10;;;31.70;49.40;;;;;;5051507;28;20032;-67
2021/03/25 03:01:58;;;;;;;2.28;0.38;;;31.10;47.50;;;;;;5052296;28;20081;-68
2021/03/25 03:04:34;;;;;;;1.00;0.10;;;31.10;49.00;;;;;;5045627;28;20112;-71
2021/03/25 03:07:13;;;;;;;0.35;0.20;;;30.90;49.60;;;;;;5055910;28;20025;-68
2021/03/25 03:09:44;;;;;;;0.65;0.10;;;31.10;50.10;;;;;;5051784;28;20476;-71
2021/03/25 03:12:17;;;;;;;0.15;0.10;;;30.90;51.50;;;;;;5052232;28;20032;-69
2021/03/25 03:14:50;;;;;;;0.30;0.08;;;30.60;50.70;;;;;;5045196;28;20035;-67
2021/03/25 03:17:24;;;;;;;0.20;0.10;;;30.30;51.00;;;;;;5050516;28;20033;-70
2021/03/25 03:20:09;;;;;;;1.25;0.00;;;30.00;52.80;;;;;;5055514;28;20046;-69
2021/03/25 03:22:37;;;;;;;0.55;0.10;;;29.90;52.40;;;;;;5055938;28;20032;-71
2021/03/25 03:25:14;;;;;;;0.00;0.00;;;31.10;51.50;;;;;;5056551;28;20044;-69
2021/03/25 03:27:58;;;;;;;0.15;0.10;;;32.00;47.60;;;;;;5052249;28;20763;-71
2021/03/25 03:30:34;;;;;;;0.10;0.10;;;31.40;46.80;;;;;;5056864;28;20049;-69
2021/03/25 03:33:29;;;;;;;0.40;0.20;;;30.70;47.60;;;;;;5033302;28;20464;-72
2021/03/25 03:36:06;;;;;;;1.15;0.30;;;30.50;48.10;;;;;;5033751;28;20502;-71
2021/03/25 03:39:01;;;;;;;0.82;0.20;;;30.90;50.60;;;;;;5049226;28;20033;-71
2021/03/25 03:41:42;;;;;;;0.08;0.00;;;30.60;51.70;;;;;;5051084;28;20013;-72
2021/03/25 03:44:15;;;;;;;0.38;0.15;;;30.70;50.20;;;;;;5052885;28;20037;-70
2021/03/25 03:46:46;;;;;;;2.05;0.10;;;30.80;50.60;;;;;;5051954;28;20028;-68
2021/03/25 03:49:23;;;;;;;1.95;0.10;;;31.70;49.20;;;;;;5054594;28;20920;-69
2021/03/25 03:52:05;;;;;;;0.00;0.00;;;31.40;47.20;;;;;;5055398;28;20032;-71
2021/03/25 03:54:33;;;;;;;0.52;0.00;;;31.30;49.00;;;;;;5058953;28;20048;-68
2021/03/25 03:57:07;;;;;;;0.43;0.00;;;30.90;47.90;;;;;;5060164;28;20123;-67
2021/03/25 03:59:48;;;;;;;0.22;0.00;;;30.90;49.70;;;;;;5056685;28;20025;-67
2021/03/25 04:02:15;;;;;;;0.00;0.00;;;31.40;48.90;;;;;;5053230;28;20029;-70
2021/03/25 04:04:52;;;;;;;0.10;0.00;;;31.20;46.90;;;;;;5050091;28;20110;-70
2021/03/25 04:07:26;;;;;;;0.40;0.00;;;30.40;50.20;;;;;;5053858;28;20052;-69
2021/03/25 04:10:07;;;;;;;0.35;0.20;;;29.80;51.50;;;;;;5055398;28;20025;-70
2021/03/25 04:12:39;;;;;;;0.10;0.00;;;29.40;52.90;;;;;;5055059;28;20021;-70
2021/03/25 04:15:22;;;;;;;0.05;0.00;;;29.70;51.70;;;;;;5051829;28;20024;-68
2021/03/25 04:18:14;;;;;;;1.95;0.32;;;29.70;51.80;;;;;;5050340;28;20031;-69
2021/03/25 04:20:51;;;;;;;1.75;0.00;;;29.50;52.20;;;;;;5054254;28;20033;-68
2021/03/25 04:23:21;;;;;;;0.00;0.00;;;29.10;53.20;;;;;;5052988;28;20037;-68
2021/03/25 04:26:04;;;;;;;0.38;0.10;;;28.90;54.30;;;;;;5051902;28;20024;-69
2021/03/25 04:29:06;;;;;;;0.20;0.00;;;29.00;53.30;;;;;;5050653;28;20044;-68
2021/03/25 04:31:35;;;;;;;0.00;0.00;;;30.20;51.30;;;;;;5036564;28;20040;-68
2021/03/25 04:34:04;;;;;;;0.10;0.00;;;30.90;51.30;;;;;;5050041;28;20471;-68
2021/03/25 04:36:40;;;;;;;0.10;0.00;;;31.50;48.90;;;;;;5051976;28;20036;-67
2021/03/25 04:39:10;;;;;;;0.20;0.00;;;31.80;48.30;;;;;;5052111;28;20040;-70
2021/03/25 04:41:40;;;;;;;1.30;0.00;;;31.70;44.90;;;;;;5053832;28;20044;-68
2021/03/25 04:44:23;;;;;;;0.00;0.00;;;31.60;44.50;;;;;;5033571;28;20372;-68
2021/03/25 04:47:01;;;;;;;0.25;0.00;;;31.60;47.60;;;;;;5052150;28;20056;-69
2021/03/25 04:49:48;;;;;;;0.00;0.00;;;31.50;46.90;;;;;;5051683;28;20033;-69
2021/03/25 04:52:19;;;;;;;0.00;0.00;;;31.60;46.40;;;;;;5051132;28;20028;-69
2021/03/25 04:54:47;;;;;;;0.20;0.00;;;31.70;47.10;;;;;;5050449;28;20483;-68
2021/03/25 04:57:26;;;;;;;0.38;0.10;;;31.80;46.00;;;;;;5055028;28;20174;-68
2021/03/25 04:59:56;;;;;;;0.32;0.10;;;31.70;45.70;;;;;;5050361;28;20112;-67
2021/03/25 05:02:25;;;;;;;0.45;0.00;;;31.80;48.20;;;;;;5052789;28;20104;-69
2021/03/25 05:04:56;;;;;;;0.00;0.00;;;31.60;48.80;;;;;;5051169;28;20025;-68
2021/03/25 05:07:30;;;;;;;1.10;0.00;;;31.70;46.60;;;;;;5052100;28;20017;-68
2021/03/25 05:09:58;;;;;;;0.30;0.00;;;30.90;48.80;;;;;;5048836;28;20024;-67
2021/03/25 05:12:27;;;;;;;0.08;0.00;;;30.70;47.20;;;;;;5052146;28;20343;-68
2021/03/25 05:15:06;;;;;;;0.35;0.10;;;30.80;48.40;;;;;;5047814;28;20367;-67
2021/03/25 05:17:53;;;;;;;0.00;0.00;;;30.70;46.00;;;;;;5048493;28;20029;-67
2021/03/25 05:20:31;;;;;;;0.22;0.00;;;30.70;46.60;;;;;;5052913;28;20028;-67
2021/03/25 05:23:04;;;;;;;0.00;0.00;;;30.90;48.00;;;;;;5049993;28;20075;-67
2021/03/25 05:25:34;;;;;;;0.10;0.00;;;31.20;47.70;;;;;;5029867;28;20056;-69
2021/03/25 05:28:23;;;;;;;1.67;0.10;;;31.50;44.80;;;;;;5050364;28;20040;-69
2021/03/25 05:30:54;;;;;;;0.20;0.10;;;31.30;45.70;;;;;;5051059;28;20134;-68
2021/03/25 05:33:26;;;;;;;1.90;0.10;;;30.60;46.70;;;;;;5048660;28;20317;-68
2021/03/25 05:36:03;;;;;;;0.10;0.10;;;30.20;48.10;;;;;;5051355;28;20105;-69
2021/03/25 05:38:30;;;;;;;0.47;0.28;;;29.70;50.20;;;;;;5050787;28;20055;-67
2021/03/25 05:41:21;;;;;;;0.17;0.10;;;29.40;50.30;;;;;;5051928;28;20228;-69
2021/03/25 05:44:19;;;;;;;1.38;0.00;;;29.20;51.20;;;;;;5052686;28;20039;-68
2021/03/25 05:47:07;;;;;;;0.10;0.05;;;29.10;51.80;;;;;;5052849;28;20036;-68
2021/03/25 05:49:37;;;;;;;0.05;0.00;;;29.10;50.10;;;;;;5050714;28;20659;-68
2021/03/25 05:52:35;;;;;;;0.63;0.10;;;29.10;49.80;;;;;;5053736;28;20041;-68
2021/03/25 05:55:24;;;;;;;0.10;0.00;;;29.10;48.90;;;;;;5050523;28;20031;-68
2021/03/25 05:58:18;;;;;;;0.35;0.10;;;29.10;49.60;;;;;;5049306;28;20017;-70
2021/03/25 06:01:17;;;;;;;1.13;0.03;;;29.10;50.50;;;;;;5050051;28;20383;-68
2021/03/25 06:04:22;;;;;;;0.93;0.08;;;29.10;49.10;;;;;;5051987;28;20028;-70
2021/03/25 06:07:08;;;;;;;0.32;0.10;;;29.50;48.80;;;;;;5046622;28;20136;-71
2021/03/25 06:09:42;;;;;;;0.32;0.22;;;29.90;48.10;;;;;;5050817;28;20119;-72
2021/03/25 06:12:53;;;;;;;1.30;0.20;;;30.00;47.50;;;;;;5056785;28;20024;-68
2021/03/25 06:15:34;;;;;;;0.70;0.10;;;29.80;48.30;;;;;;4943206;28;20027;-67
2021/03/25 06:18:20;;;;;;;2.65;0.20;;;29.70;48.30;;;;;;5042068;28;20029;-68
2021/03/25 06:21:05;;;;;;;;;;;29.80;48.10;;;;;;5050051;28;20494;-68
2021/03/25 06:23:49;;;;;;;0.55;0.10;;;29.50;49.30;;;;;;5051484;28;20289;-68
2021/03/25 06:26:20;;;;;;;0.10;0.00;;;29.20;48.70;;;;;;5049521;28;20103;-68
2021/03/25 06:28:54;;;;;;;0.25;0.08;;;29.30;50.50;;;;;;5050193;28;20028;-68
2021/03/25 06:31:54;;;;;;;0.00;0.00;;;29.10;48.20;;;;;;5047607;28;20128;-68
2021/03/25 06:35:00;;;;;;;0.82;0.10;;;28.90;46.20;;;;;;5049092;28;20471;-69
2021/03/25 06:37:43;;;;;;;0.98;0.20;;;28.60;45.30;;;;;;5049078;28;20037;-68
2021/03/25 06:40:25;;;;;;;0.60;0.15;;;28.60;45.60;;;;;;5047178;28;20017;-71
2021/03/25 06:43:05;;;;;;;0.75;0.03;;;28.50;43.90;;;;;;5052633;28;20499;-68
2021/03/25 06:45:39;;;;;;;0.00;0.00;;;28.20;43.00;;;;;;5049309;28;20029;-68
2021/03/25 06:48:15;;;;;;;0.25;0.10;;;27.90;43.10;;;;;;5053206;28;20948;-68
2021/03/25 06:50:50;;;;;;;0.88;0.10;;;27.70;44.10;;;;;;5049660;28;20103;-69
2021/03/25 06:53:28;;;;;;;1.30;0.00;;;27.50;44.60;;;;;;5053949;28;20033;-69
2021/03/25 06:56:18;;;;;;;0.95;0.10;;;27.60;44.10;;;;;;5054520;28;20098;-68
2021/03/25 06:58:51;;;;;;;0.60;0.08;;;27.70;43.40;;;;;;5055290;28;20048;-69
2021/03/25 07:01:25;;;;;;;0.50;0.10;;;27.70;44.20;;;;;;5053260;28;20028;-68
2021/03/25 07:03:56;;;;;;;0.30;0.20;;;27.70;44.60;;;;;;5054677;28;20506;-68
2021/03/25 07:06:27;;;;;;;1.48;0.10;;;27.70;43.40;;;;;;5052951;28;20538;-67
2021/03/25 07:08:56;;;;;;;0.77;0.10;;;27.70;44.10;;;;;;5045758;28;20017;-66
2021/03/25 07:11:29;;;;;;;1.92;0.10;;;27.50;44.80;;;;;;5053469;28;20020;-69
2021/03/25 07:14:18;;;;;;;2.20;0.20;;;27.40;45.80;;;;;;5047474;28;20020;-67
2021/03/25 07:16:47;;;;;;;1.35;0.10;;;27.20;44.60;;;;;;5050879;28;20029;-68
2021/03/25 07:19:22;;;;;;;1.15;0.43;;;27.10;46.20;;;;;;5053051;28;20051;-67
2021/03/25 07:22:14;;;;;;;0.82;0.10;;;27.00;46.60;;;;;;5054560;28;20044;-69
2021/03/25 07:24:42;;;;;;;0.60;0.00;;;26.90;45.80;;;;;;5034028;28;20041;-68
2021/03/25 07:27:23;;;;;;;0.10;0.10;;;26.60;46.40;;;;;;5048185;28;20074;-69
2021/03/25 07:30:14;;;;;;;1.73;0.10;;;26.50;47.00;;;;;;5052189;28;20110;-68
2021/03/25 07:32:44;;;;;;;0.10;0.10;;;26.40;47.90;;;;;;5052685;28;20356;-69
2021/03/25 07:35:29;;;;;;;0.20;0.10;;;26.20;47.70;;;;;;5050776;28;20104;-68
2021/03/25 07:38:24;;;;;;;0.22;0.10;;;26.10;48.90;;;;;;5052081;28;20036;-68
2021/03/25 07:41:06;;;;;;;0.10;0.00;;;25.90;49.10;;;;;;5055252;28;20500;-68
2021/03/25 07:43:59;;;;;;;1.15;0.20;;;25.70;50.10;;;;;;5060673;28;20068;-68
2021/03/25 07:46:31;;;;;;;0.30;0.10;;;25.60;49.90;;;;;;5048186;28;20417;-67
2021/03/25 07:49:20;;;;;;;0.60;0.20;;;25.50;50.90;;;;;;5053334;28;20029;-67
2021/03/25 07:51:49;;;;;;;2.47;0.60;;;25.40;50.90;;;;;;5060451;28;20039;-68
2021/03/25 07:54:32;;;;;;;2.30;1.40;;;25.30;50.90;;;;;;5046515;28;20043;-68
2021/03/25 07:57:12;;;;;;;0.70;0.30;;;25.20;52.30;;;;;;5053186;28;20113;-69
2021/03/25 07:59:52;;;;;;;0.60;0.25;;;25.10;52.10;;;;;;5056375;28;20025;-68
2021/03/25 08:02:36;;;;;;;1.10;0.30;;;25.00;52.20;;;;;;5054827;28;20033;-69
2021/03/25 08:05:30;;;;;;;0.60;0.30;;;24.90;52.30;;;;;;5054270;28;20028;-68
2021/03/25 08:08:27;;;;;;;0.70;0.30;;;24.80;52.80;;;;;;5034746;28;20025;-69
2021/03/25 08:11:17;;;;;;;0.20;0.20;;;24.70;53.50;;;;;;5061648;28;20429;-71
2021/03/25 08:14:12;;;;;;;2.92;0.90;;;24.60;54.20;;;;;;5051301;28;20510;-69
2021/03/25 08:16:45;;;;;;;1.23;0.20;;;24.50;54.80;;;;;;5056940;28;20450;-69
2021/03/25 08:19:33;;;;;;;0.43;0.30;;;24.30;54.00;;;;;;5053915;28;20394;-69
2021/03/25 08:22:10;;;;;;;2.00;0.20;;;24.20;55.60;;;;;;5058788;28;20071;-69
2021/03/25 08:24:55;;;;;;;0.45;0.10;;;24.10;54.20;;;;;;5059348;28;20047;-69
2021/03/25 08:27:56;;;;;;;0.20;0.10;;;24.00;52.40;;;;;;5054965;28;20041;-69
2021/03/25 08:30:50;;;;;;;1.80;0.15;;;24.00;51.70;;;;;;5055398;28;20645;-68
2021/03/25 08:33:36;;;;;;;0.30;0.10;;;24.00;51.60;;;;;;5055298;28;20036;-67
2021/03/25 08:36:21;;;;;;;0.10;0.05;;;23.90;50.10;;;;;;5062696;28;20021;-68
2021/03/25 08:39:13;;;;;;;1.38;0.10;;;23.80;49.80;;;;;;5054758;28;20179;-68
2021/03/25 08:41:49;;;;;;;0.30;0.10;;;23.70;49.40;;;;;;5050375;28;20033;-69
2021/03/25 08:44:38;;;;;;;0.38;0.10;;;23.70;50.40;;;;;;5055522;28;20037;-70
2021/03/25 08:47:19;;;;;;;0.10;0.10;;;23.70;51.20;;;;;;5056497;28;20032;-71
2021/03/25 08:50:16;;;;;;;0.82;0.22;;;23.60;51.60;;;;;;5053412;28;20476;-70
2021/03/25 08:52:45;;;;;;;1.90;0.20;;;23.50;52.20;;;;;;5059479;28;20033;-69
2021/03/25 08:55:27;;;;;;;0.68;0.08;;;23.40;53.20;;;;;;5039968;28;20023;-71
2021/03/25 08:58:22;;;;;;;0.13;0.10;;;23.30;53.80;;;;;;5036300;28;20030;-70
2021/03/25 09:01:00;;;;;;;0.65;0.10;;;23.30;54.40;;;;;;5057154;28;20044;-69
2021/03/25 09:03:43;;;;;;;1.30;0.10;;;23.20;54.70;;;;;;5057331;28;20750;-69
2021/03/25 09:06:24;;;;;;;0.65;0.10;;;23.10;55.60;;;;;;5056683;28;20024;-71
2021/03/25 09:09:15;;;;;;;0.60;0.10;;;23.10;55.50;;;;;;5056995;28;20035;-72
2021/03/25 09:11:44;;;;;;;0.68;0.13;;;23.10;56.00;;;;;;5058372;28;20032;-68
2021/03/25 09:14:22;;;;;;;0.30;0.10;;;23.00;56.10;;;;;;5053489;28;20032;-70
2021/03/25 09:16:59;;;;;;;0.70;0.10;;;22.90;55.50;;;;;;5053865;28;20037;-72
2021/03/25 09:20:00;;;;;;;0.38;0.20;;;22.90;54.40;;;;;;5053524;28;20029;-69
2021/03/25 09:22:43;;;;;;;0.43;0.30;;;22.80;54.30;;;;;;5035753;28;20040;-70
2021/03/25 09:25:28;;;;;;;0.65;0.17;;;22.90;54.50;;;;;;5054737;28;20115;-69
2021/03/25 09:28:11;;;;;;;0.93;0.20;;;22.80;54.90;;;;;;5051166;28;20060;-70
2021/03/25 09:30:45;;;;;;;1.65;0.10;;;22.70;54.80;;;;;;5054538;28;20549;-69
2021/03/25 09:33:51;;;;;;;1.35;0.20;;;22.60;54.40;;;;;;5058055;28;20034;-72
2021/03/25 09:36:19;;;;;;;1.35;0.35;;;22.60;54.60;;;;;;5054850;28;20036;-70
2021/03/25 09:39:00;;;;;;;0.40;0.10;;;22.50;54.80;;;;;;5053925;28;20020;-70
2021/03/25 09:41:32;;;;;;;4.10;1.02;;;22.40;55.00;;;;;;5055558;28;20341;-71
2021/03/25 09:44:12;;;;;;;0.68;0.10;;;22.40;54.30;;;;;;5051083;28;20100;-67
2021/03/25 09:46:42;;;;;;;2.78;0.13;;;22.30;54.60;;;;;;5058229;28;20028;-69
2021/03/25 09:49:31;;;;;;;0.57;0.28;;;22.30;55.00;;;;;;5052059;28;20076;-71
2021/03/25 09:52:22;;;;;;;0.47;0.20;;;22.30;54.10;;;;;;5050073;28;20463;-69
2021/03/25 09:54:55;;;;;;;2.05;0.10;;;22.20;54.30;;;;;;5053020;28;20115;-69
2021/03/25 09:57:37;;;;;;;1.83;0.20;;;22.20;54.60;;;;;;5055744;28;20033;-71
2021/03/25 10:00:24;;;;;;;0.40;0.30;;;22.20;54.90;;;;;;5053742;28;20546;-69
2021/03/25 10:03:14;;;;;;;0.30;0.10;;;22.10;55.10;;;;;;5050472;28;20037;-71
2021/03/25 10:05:43;;;;;;;0.57;0.08;;;22.00;54.90;;;;;;5053848;28;20036;-72
2021/03/25 10:08:17;;;;;;;1.40;0.20;;;22.00;55.50;;;;;;5054270;28;20025;-72
2021/03/25 10:10:49;;;;;;;1.10;0.28;;;22.00;55.70;;;;;;5053385;28;20036;-70
2021/03/25 10:13:47;;;;;;;0.30;0.10;;;21.90;56.80;;;;;;5048379;28;20475;-68
2021/03/25 10:16:32;;;;;;;0.75;0.10;;;21.90;57.00;;;;;;5051133;28;20028;-69
2021/03/25 10:19:02;;;;;;;0.20;0.20;;;21.90;56.70;;;;;;5054895;28;20166;-69
2021/03/25 10:22:00;;;;;;;0.40;0.20;;;21.80;58.00;;;;;;5050022;28;20278;-69
2021/03/25 10:24:32;;;;;;;0.63;0.10;;;21.70;57.30;;;;;;5040746;28;20129;-70
2021/03/25 10:27:15;;;;;;;0.35;0.10;;;21.60;57.20;;;;;;5052401;28;20403;-68
2021/03/25 10:29:43;;;;;;;0.90;0.20;;;21.60;57.90;;;;;;5049003;28;20033;-71
2021/03/25 10:32:29;;;;;;;1.02;0.20;;;21.50;57.90;;;;;;5030561;28;20043;-70
2021/03/25 10:35:03;;;;;;;2.03;0.10;;;21.50;58.80;;;;;;5054166;28;20044;-70
2021/03/25 10:37:47;;;;;;;0.80;0.10;;;21.50;59.00;;;;;;5052116;28;21878;-69
2021/03/25 10:40:35;;;;;;;0.47;0.13;;;21.40;59.60;;;;;;5051586;28;20107;-69
2021/03/25 10:43:10;;;;;;;0.45;0.40;;;21.40;59.30;;;;;;5049734;28;20097;-69
2021/03/25 10:45:58;;;;;;;;;;;21.40;58.90;;;;;;5053292;28;20502;-69
2021/03/25 10:48:32;;;;;;;2.72;0.20;;;21.30;59.00;;;;;;5038202;28;20270;-69
2021/03/25 10:51:02;;;;;;;0.55;0.20;;;21.30;59.70;;;;;;5031483;28;20021;-68
2021/03/25 10:53:38;;;;;;;0.35;0.10;;;21.20;60.60;;;;;;5050342;28;20064;-70
2021/03/25 10:56:26;;;;;;;4.13;0.45;;;21.20;60.10;;;;;;5054874;28;20036;-71
2021/03/25 10:59:09;;;;;;;0.22;0.10;;;21.20;60.80;;;;;;5062509;28;20155;-69
2021/03/25 11:01:56;;;;;;;2.15;0.20;;;21.20;60.50;;;;;;5034027;28;20470;-69
2021/03/25 11:04:32;;;;;;;0.32;0.10;;;21.10;61.20;;;;;;5055644;28;20344;-67
2021/03/25 11:07:24;;;;;;;0.30;0.10;;;21.00;61.50;;;;;;5055339;28;20031;-68
2021/03/25 11:09:59;;;;;;;0.30;0.10;;;21.00;61.30;;;;;;5052160;28;20044;-70
2021/03/25 11:12:34;;;;;;;0.25;0.20;;;20.90;61.10;;;;;;5048185;28;20054;-67
2021/03/25 11:15:18;;;;;;;0.60;0.15;;;20.90;62.50;;;;;;5044824;28;20037;-71
2021/03/25 11:17:47;;;;;;;0.85;0.47;;;20.80;63.90;;;;;;5049927;28;20086;-69
2021/03/25 11:20:24;;;;;;;0.38;0.10;;;20.90;64.30;;;;;;5050015;28;20112;-72
2021/03/25 11:22:54;;;;;;;0.32;0.13;;;20.90;65.50;;;;;;5051965;28;20037;-70
2021/03/25 11:25:29;;;;;;;0.13;0.10;;;20.80;65.10;;;;;;5049334;28;20101;-70
2021/03/25 11:28:17;;;;;;;0.28;0.28;;;20.80;65.50;;;;;;5048671;28;20490;-70
2021/03/25 11:30:56;;;;;;;0.50;0.30;;;20.70;66.30;;;;;;5051739;28;20072;-70
2021/03/25 11:33:31;;;;;;;1.50;0.10;;;20.60;67.00;;;;;;5047808;28;20090;-70
2021/03/25 11:36:05;;;;;;;0.20;0.20;;;20.50;67.20;;;;;;5053654;28;20040;-71
2021/03/25 11:38:36;;;;;;;0.10;0.10;;;20.60;67.50;;;;;;5055367;28;20024;-71
2021/03/25 11:41:11;;;;;;;3.10;0.40;;;20.50;68.60;;;;;;5052211;28;20131;-69
2021/03/25 11:43:42;;;;;;;1.70;0.23;;;20.40;68.60;;;;;;5052204;28;20155;-69
2021/03/25 11:46:11;;;;;;;1.10;0.30;;;20.40;69.10;;;;;;5053249;28;20033;-70
2021/03/25 11:48:39;;;;;;;0.28;0.17;;;20.30;69.10;;;;;;5037251;28;20463;-70
2021/03/25 11:51:19;;;;;;;2.00;0.30;;;20.10;69.10;;;;;;5042725;28;20029;-69
2021/03/25 11:53:56;;;;;;;2.45;0.30;;;20.00;70.40;;;;;;5057469;28;20060;-68
2021/03/25 11:56:34;;;;;;;0.20;0.17;;;19.90;67.60;;;;;;5056252;28;20029;-68
2021/03/25 11:59:14;;;;;;;0.65;0.45;;;19.80;69.20;;;;;;5053248;28;20042;-69
2021/03/25 12:01:46;;;;;;;1.67;0.47;;;19.80;70.60;;;;;;5059876;28;20052;-69
2021/03/25 12:04:16;;;;;;;0.80;0.63;;;19.70;70.50;;;;;;5056162;28;20083;-69
2021/03/25 12:07:04;;;;;;;1.83;0.20;;;19.60;70.40;;;;;;5052966;28;20017;-71
2021/03/25 12:09:35;;;;;;;1.58;0.30;;;19.60;69.20;;;;;;5055354;28;20032;-69
2021/03/25 12:12:07;;;;;;;0.47;0.40;;;19.60;69.30;;;;;;5055780;28;20111;-68
2021/03/25 12:14:34;;;;;;;0.50;0.20;;;19.60;69.20;;;;;;5065628;28;20398;-68
2021/03/25 12:17:04;;;;;;;0.75;0.20;;;19.60;69.60;;;;;;5057175;28;20017;-71
2021/03/25 12:19:34;;;;;;;1.27;0.60;;;19.60;69.10;;;;;;5056772;28;20085;-68
2021/03/25 12:22:02;;;;;;;0.70;0.20;;;19.60;70.00;;;;;;5056228;28;20021;-69
2021/03/25 12:24:29;;;;;;;1.30;0.30;;;19.50;71.30;;;;;;5053758;28;20141;-70
2021/03/25 12:26:57;;;;;;;1.67;0.25;;;19.40;72.60;;;;;;5052088;28;20035;-70
2021/03/25 12:29:24;;;;;;;1.85;0.30;;;19.40;72.60;;;;;;5061059;28;20506;-69
2021/03/25 12:31:51;;;;;;;3.03;0.20;;;19.30;72.30;;;;;;5061170;28;20447;-70
2021/03/25 12:34:21;;;;;;;1.35;0.22;;;19.30;72.30;;;;;;5064162;28;20107;-69
2021/03/25 12:36:48;;;;;;;1.58;0.20;;;19.20;73.80;;;;;;5060543;28;20033;-71
2021/03/25 12:39:18;;;;;;;3.00;0.75;;;19.20;73.90;;;;;;5059614;28;20063;-70
2021/03/25 12:41:51;;;;;;;1.48;0.20;;;19.10;74.00;;;;;;5058915;28;20038;-70
2021/03/25 12:44:18;;;;;;;0.30;0.28;;;19.10;74.20;;;;;;5053146;28;20049;-70
2021/03/25 12:46:45;;;;;;;0.65;0.20;;;19.00;74.90;;;;;;5055086;28;20360;-70
2021/03/25 12:49:13;;;;;;;0.55;0.35;;;19.00;75.10;;;;;;5060240;28;20059;-70
2021/03/25 12:51:40;;;;;;;1.13;0.28;;;18.90;75.40;;;;;;5051246;28;20026;-70
2021/03/25 12:54:08;;;;;;;3.22;0.30;;;18.90;75.70;;;;;;5058342;28;20028;-70
2021/03/25 12:56:39;;;;;;;1.33;0.38;;;18.80;75.20;;;;;;5056892;28;20033;-69
2021/03/25 12:59:13;;;;;;;1.05;0.32;;;18.80;74.80;;;;;;5055010;28;20030;-70
2021/03/25 13:01:42;;;;;;;0.73;0.20;;;18.90;74.20;;;;;;5056439;28;20036;-70
2021/03/25 13:04:09;;;;;;;0.80;0.20;;;18.90;74.60;;;;;;5057400;28;20458;-71
2021/03/25 13:06:37;;;;;;;2.08;0.30;;;19.00;74.20;;;;;;5060977;28;20032;-70
2021/03/25 13:09:05;;;;;;;0.85;0.30;;;19.00;73.90;;;;;;5056158;28;20031;-70
2021/03/25 13:11:38;;;;;;;0.43;0.30;;;19.10;73.80;;;;;;5056815;28;20082;-70
2021/03/25 13:14:05;;;;;;;0.75;0.30;;;19.10;73.10;;;;;;5056408;28;20479;-71
2021/03/25 13:16:33;;;;;;;2.13;0.30;;;19.10;74.00;;;;;;5055121;28;20032;-68
2021/03/25 13:19:01;;;;;;;2.15;0.50;;;19.10;73.60;;;;;;5054363;28;20020;-70
2021/03/25 13:21:28;;;;;;;1.75;0.32;;;19.00;74.00;;;;;;5052930;28;20485;-71
2021/03/25 13:23:56;;;;;;;1.15;0.40;;;18.90;74.10;;;;;;5055833;28;20413;-70
2021/03/25 13:26:23;;;;;;;0.45;0.25;;;18.90;74.70;;;;;;5056908;28;20120;-69
2021/03/25 13:28:50;;;;;;;0.45;0.20;;;18.80;74.50;;;;;;5051367;28;20356;-70
2021/03/25 13:31:18;;;;;;;2.00;0.20;;;18.80;75.00;;;;;;5056609;28;20060;-71
2021/03/25 13:33:45;;;;;;;0.77;0.20;;;18.90;74.50;;;;;;5057333;28;20098;-70
2021/03/25 13:36:13;;;;;;;1.33;0.30;;;18.90;74.90;;;;;;5064077;28;20028;-70
2021/03/25 13:38:40;;;;;;;1.45;0.28;;;19.00;74.80;;;;;;5058183;28;20052;-71
2021/03/25 13:41:09;;;;;;;0.57;0.32;;;19.00;74.70;;;;;;5057756;28;20024;-70